AirNav   MODERNIZE NOT PRIVATIZE ATC
 
 977 users online  

05NY Oswego County Heliport at Pulaski
Pulaski, New York, USA

GOING TO PULASKI?


FAA INFORMATION EFFECTIVE 20 JULY 2017

Location

FAA Identifier: 05NY
Lat/Long: 43-33-07.2500N / 076-05-24.7240W
43-33.120833N / 076-05.412067W
43.5520139 / -76.0902011
(estimated)
Elevation: 445 ft. / 136 m (estimated)
Variation: 12W (1985)
From city: 1 mile SE of PULASKI, NY
Time zone: UTC -4 (UTC -5 during Standard Time)
Zip code: 13142

Heliport Operations

Heliport use: Private use. Permission required prior to landing
Activation date: 03/1990
Control tower: no
ARTCC: BOSTON CENTER
FSS: BURLINGTON FLIGHT SERVICE STATION
Attendance: UNATNDD
Wind indicator: lighted
Segmented circle: no
Lights: ACTVT PERIMETER LGTS - 122.9.
Beacon: white-green-yellow (heliport)
ACTVT ROTG BCN - 122.9.

Heliport Communications

WX AWOS-3 at FZY (18 nm SW): 119.275 (315-598-8773)

Nearby radio navigation aids

VOR radial/distance  VOR name  Freq  Var
SYRr023/24.0SYRACUSE VORTAC117.0011W
ARTr195/24.0WATERTOWN VORTAC109.8012W

 
NDB name  Hdg/Dist  Freq  Var  ID
DRUM219/34.725713WGTB --. - -...

Heliport Services

Runway Information

Helipad H1

Dimensions: 75 x 75 ft. / 23 x 23 m
Surface: asphalt/concrete, in good condition
Runway edge lights: PERIMETER LGTS.
Traffic pattern: leftleft

Heliport Ownership and Management from official FAA records

Ownership: Privately-owned
Owner: OSWEGO CO HGWY DEPT
31 SCHAAD DR.
OSWEGO, NY 13126
Phone 315-349-8331
Manager: BRANDON SCHWERDT
40 AIRPORT DR
FULTON, NY 13069
Phone 315-349-8331

Instrument Procedures

There are no published instrument procedures at 05NY.

Some nearby airports with instrument procedures:

KFZY - Oswego County Airport (18 nm SW)
KSYR - Syracuse Hancock International Airport (26 nm S)
KART - Watertown International Airport (27 nm N)
KGTB - Wheeler-Sack Army Airfield (34 nm NE)
B16 - Whitfords Airport (34 nm SW)
 
Loc | Ops | Rwys | IFR | FBO | Links
Com | Nav | Svcs | Stats | Notes


 
Area around 05NY (Oswego County Heliport at Pulaski)
 
Road maps at: MapQuest Bing Google
 
Aerial photo
No photo
 
Sectional chart

 
Airport distance calculator
Flying to Oswego County Heliport at Pulaski? Find the distance to fly.

From to 05NY

Sunrise and sunset
Times for 22-Jul-2017
 Local
(UTC-4)
 Zulu
(UTC)
Morning civil twilight05:1109:11
Sunrise05:4409:44
Sunset20:3700:37
Evening civil twilight21:1101:11

Current date and time
Zulu (UTC)  22-Jul-2017 21:20:10
Local (UTC-4)  22-Jul-2017 17:20:10
 
METAR
KFZY 
18nm SW 
222054Z AUTO 00000KT 10SM -RA SCT100 BKN120 23/19 A2983 RMK AO2 RAE22B53 SLP098 P0000 60002 T02280194 58016
KART 
26nm N 
222056Z AUTO 00000KT 10SM CLR 23/19 A2982 RMK AO2 SLP093 T02330189 58014
KSYR 
26nm S 
222054Z 04006KT 10SM FEW090 BKN120 OVC150 23/19 A2981 RMK AO2 RAE14B32E53 SLP090 P0000 60000 T02330189 58017
KGTB 
33nm NE 
222058Z AUTO 25004KT 5SM HZ CLR 23/18 A2983 RMK AO2 SLP099 T02260177 58012 $
TAF
KART 
26nm N 
221739Z 2218/2318 24006KT P6SM BKN120 FM222200 VRB03KT P6SM BKN120 FM230400 07004KT P6SM BKN080 FM231500 04007KT P6SM BKN070
KSYR 
26nm S 
221726Z 2218/2318 VRB03KT P6SM OVC200 FM230400 00000KT P6SM OVC080 FM231600 VRB03KT P6SM BKN050 OVC100
NOTAMs
Click for the latest NOTAMs
NOTAMs are issued by the DoD/FAA and will open in a separate window not controlled by AirNav.

 

 
 

Would you like to see your business listed on this page?

 If your business provides an interesting product or service to pilots, flight crews, aircraft, or users of the Oswego County Heliport at Pulaski, you should consider listing it here.  To start the listing process, click on the button below
 
Add a business
 

Other Pages about Oswego County Heliport at Pulaski

Update a link
 
Copyright © AirNav, LLC. All rights reserved. Privacy Policy  Contact